×

Warning

JFile: :read: Unable to open file: http://aviationweather.gov/adds/metars/?station_ids=TVSA&std_trans=standard&chk_metars=on&hoursStr=most+recent+only&submitmet=Submit

Latest Weather Forecast - Monday 27th July 2020 (6 am)

Forecast Period: 

6:00 am 27th July 2020  to 12:00 noon 27th July 2020 

Synopsis:

A tropical wave is affecting the islands

Forecast:

Mostly cloudy with scattered showers and isolated thunderstorms

   Weather    Advisory/Warning:

None
Winds:

NE - ESE at 10 - 25 km/h (6 – 16 mph)

Sea Conditions:

Slight to moderate in open water; north-easterly swells (1.0 – 1.5 m)

          Marine             Advisory/Warning:

None

Upcoming Tides:
High: 11:52 am  11:41 pm
Low: ****  07:22 pm

Aviation WX

[Source: ADDS]
METAR
WX-Data not avlb.
(due to wrong input of icao-codes or 'allow_url_fopen' is OFF [1] and cURL not enabled [1] on this server!)
TAF
TVSA 101100Z 1012/1112 06010KT 9999 SCT018 SCT036 PROB40 TEMPO 1012/1018 SHRA BKN014 BKN032 =
SR / SS: 09:51 / 22:28 UTC (Sunrise Sunset 2020-08-10)